Time;durP1;ratioP1;P1;durP2;ratioP2;P2;SDS_P1;SDS_P2;PMS_P1;PMS_P2;Temp;Humidity;BMP_temperature;BMP_pressure;BME280_temperature;BME280_humidity;BME280_pressure;Samples;Min_cycle;Max_cycle;Signal;HPM_P1;HPM_P2
2022/10/12 05:38:19;;;;;;;25.13;14.35;;;;;;;2.27;100.00;102099.84;10194695;28;1237927;-67
2022/10/12 05:43:19;;;;;;;28.20;15.05;;;;;;;2.22;100.00;102101.47;10537488;28;20044;-67
2022/10/12 05:48:21;;;;;;;26.90;15.23;;;;;;;2.22;100.00;102104.06;10539646;28;20045;-66
2022/10/12 05:53:22;;;;;;;34.50;14.87;;;;;;;2.09;100.00;102097.03;10539368;28;20071;-64
2022/10/12 05:58:24;;;;;;;24.35;13.57;;;;;;;2.15;100.00;102099.66;10539284;28;20404;-65
2022/10/12 06:03:25;;;;;;;28.23;14.82;;;;;;;2.35;100.00;102106.78;10538916;28;20052;-67
2022/10/12 06:08:30;;;;;;;28.08;15.57;;;;;;;2.42;100.00;102100.88;10538996;28;20043;-66
2022/10/12 06:13:30;;;;;;;26.50;15.05;;;;;;;2.60;100.00;102107.09;10536390;28;20097;-65
2022/10/12 06:18:31;;;;;;;33.85;15.35;;;;;;;2.66;100.00;102105.44;10538491;28;20066;-66
2022/10/12 06:23:32;;;;;;;25.88;14.40;;;;;;;2.82;100.00;102103.03;10538525;28;20074;-65
2022/10/12 06:28:32;;;;;;;23.40;13.52;;;;;;;3.03;100.00;102099.81;10537946;28;20403;-65
2022/10/12 06:33:33;;;;;;;22.90;14.10;;;;;;;3.09;100.00;102105.00;10533264;28;20046;-66
2022/10/12 06:38:35;;;;;;;26.23;14.13;;;;;;;3.24;100.00;102105.16;10512350;28;20137;-66
2022/10/12 06:43:35;;;;;;;22.88;13.82;;;;;;;3.58;100.00;102095.06;10524718;28;20055;-65
2022/10/12 06:48:37;;;;;;;29.52;14.63;;;;;;;4.37;100.00;102095.50;10536783;28;20474;-66
2022/10/12 06:53:37;;;;;;;32.90;15.88;;;;;;;4.48;100.00;102100.72;10495498;28;20039;-67
2022/10/12 06:58:39;;;;;;;37.45;15.30;;;;;;;4.47;100.00;102105.88;10495511;28;20047;-66
2022/10/12 07:03:40;;;;;;;30.83;14.65;;;;;;;4.40;100.00;102106.69;10494952;28;20032;-65
2022/10/12 07:08:42;;;;;;;34.33;15.52;;;;;;;4.58;100.00;102105.94;10536839;28;20119;-65
2022/10/12 07:13:42;;;;;;;36.53;14.45;;;;;;;4.76;100.00;102111.13;10534806;28;20605;-67
2022/10/12 07:18:44;;;;;;;34.90;17.30;;;;;;;5.55;100.00;102101.72;10536726;28;20118;-66
2022/10/12 07:23:44;;;;;;;44.30;16.27;;;;;;;5.43;100.00;102092.22;10536738;28;20679;-66
2022/10/12 07:28:44;;;;;;;38.40;15.60;;;;;;;5.36;100.00;102083.59;10533716;28;20089;-66
2022/10/12 07:33:45;;;;;;;40.17;14.98;;;;;;;5.31;100.00;102080.16;10525899;28;20035;-65
2022/10/12 07:38:47;;;;;;;45.83;17.75;;;;;;;6.34;100.00;102086.81;10504172;28;20106;-65
2022/10/12 07:43:53;;;;;;;;;;;;;;;6.90;100.00;102096.88;10492522;28;20059;-67
2022/10/12 07:48:53;;;;;;;27.45;14.15;;;;;;;6.23;100.00;102094.66;10494567;28;19912;-66
2022/10/12 07:53:54;;;;;;;36.00;18.20;;;;;;;7.45;100.00;102090.41;10494844;28;20344;-65
2022/10/12 07:58:56;;;;;;;38.20;21.67;;;;;;;9.05;100.00;102101.47;10512058;28;20371;-67
2022/10/12 08:03:58;;;;;;;50.88;26.02;;;;;;;10.65;96.12;102100.22;10539389;28;20383;-66
2022/10/12 08:09:01;;;;;;;43.92;25.20;;;;;;;11.37;96.79;102106.34;10544203;28;20038;-68
2022/10/12 08:14:01;;;;;;;49.20;25.25;;;;;;;10.72;91.82;102109.66;10540049;28;20073;-67
2022/10/12 08:19:02;;;;;;;30.88;18.58;;;;;;;11.87;90.88;102105.06;10542240;28;20395;-66
2022/10/12 08:24:02;;;;;;;26.37;15.70;;;;;;;11.91;94.21;102101.47;10542046;28;20478;-67
2022/10/12 08:29:05;;;;;;;24.23;13.07;;;;;;;13.37;94.85;102094.38;10542967;28;20286;-67
2022/10/12 08:34:05;;;;;;;21.55;12.35;;;;;;;12.97;91.75;102098.34;10541653;28;20058;-64
2022/10/12 08:39:07;;;;;;;18.60;11.83;;;;;;;13.85;89.05;102091.88;10541236;28;20457;-65
2022/10/12 08:44:45;;;;;;;18.13;12.07;;;;;;;14.91;73.86;102094.88;10539988;28;20050;-64
2022/10/12 08:49:48;;;;;;;16.83;11.75;;;;;;;11.07;87.83;102096.63;10540999;28;20039;-65
2022/10/12 08:54:49;;;;;;;22.10;11.80;;;;;;;11.45;86.98;102091.34;10542691;28;20042;-64
2022/10/12 08:59:49;;;;;;;19.20;11.37;;;;;;;11.33;86.39;102098.59;10542237;28;20077;-64
2022/10/12 09:04:58;;;;;;;19.47;11.30;;;;;;;12.90;81.37;102108.13;10542156;28;20028;-65
2022/10/12 09:10:23;;;;;;;15.05;10.30;;;;;;;13.91;80.01;102106.53;10541581;28;20110;-64
2022/10/12 09:16:00;;;;;;;15.02;8.90;;;;;;;14.53;75.25;102111.25;10537659;28;20035;-65
2022/10/12 09:21:05;;;;;;;18.70;10.13;;;;;;;14.42;75.47;102112.53;10522998;28;20040;-63
2022/10/12 09:26:17;;;;;;;14.35;9.88;;;;;;;15.81;68.81;102116.56;10539612;28;20016;-65
2022/10/12 09:32:11;;;;;;;18.30;10.30;;;;;;;15.26;67.02;102112.75;10539843;28;20686;-66
2022/10/12 09:37:22;;;;;;;16.70;10.25;;;;;;;16.21;68.91;102106.88;10497041;28;20105;-64
2022/10/12 09:42:22;;;;;;;16.17;10.27;;;;;;;15.08;73.25;102107.34;10540577;28;20044;-64
2022/10/12 09:47:30;;;;;;;18.87;11.33;;;;;;;16.51;68.44;102109.91;10526537;28;20031;-64
2022/10/12 09:52:44;;;;;;;16.92;10.93;;;;;;;15.24;71.54;102109.31;10507807;28;20031;-64
2022/10/12 09:57:55;;;;;;;23.38;11.82;;;;;;;14.59;69.20;102102.25;10538097;28;20072;-80
2022/10/12 10:02:57;;;;;;;21.57;11.20;;;;;;;15.94;69.81;102090.50;10513166;28;20068;-76
2022/10/12 10:08:22;;;;;;;18.33;10.48;;;;;;;17.12;65.09;102081.50;10537426;28;20775;-78
2022/10/12 10:13:29;;;;;;;17.65;10.20;;;;;;;16.98;63.18;102069.81;10535340;28;20072;-76
2022/10/12 10:18:43;;;;;;;24.38;11.18;;;;;;;17.35;60.84;102076.84;10536126;28;20129;-78
2022/10/12 10:23:56;;;;;;;20.13;10.10;;;;;;;18.52;65.65;102079.38;10536526;28;20483;-76
2022/10/12 10:29:25;;;;;;;15.38;9.02;;;;;;;15.82;65.56;102081.41;10537581;28;20028;-76
2022/10/12 10:34:26;;;;;;;15.15;8.88;;;;;;;18.49;71.42;102074.28;10537346;28;20150;-76
2022/10/12 10:39:43;;;;;;;17.08;9.18;;;;;;;15.18;69.53;102084.16;10576559;28;20039;-80
2022/10/12 10:45:23;;;;;;;15.75;7.70;;;;;;;17.46;62.19;102069.22;10576786;28;20088;-76
2022/10/12 10:50:42;;;;;;;11.05;6.18;;;;;;;18.23;61.03;102063.38;10561885;28;20035;-75
2022/10/12 10:55:50;;;;;;;12.65;6.32;;;;;;;15.52;62.63;102060.78;10530277;28;20386;-72
2022/10/12 11:00:57;;;;;;;13.55;5.75;;;;;;;17.81;64.10;102054.22;10535559;28;20047;-73
2022/10/12 11:06:28;;;;;;;10.85;5.13;;;;;;;16.11;60.58;102047.66;10553109;28;20490;-73
2022/10/12 11:11:35;;;;;;;13.02;5.55;;;;;;;15.27;63.45;102035.56;10518054;28;20490;-74
2022/10/12 11:16:47;;;;;;;9.45;5.70;;;;;;;16.34;59.79;102037.81;10533349;28;20039;-76
2022/10/12 11:21:56;;;;;;;14.68;5.93;;;;;;;15.48;65.55;102027.66;10504500;28;20114;-74
2022/10/12 11:27:16;;;;;;;13.35;6.03;;;;;;;15.82;62.03;102020.88;10533842;28;20027;-74
2022/10/12 11:32:27;;;;;;;10.45;5.70;;;;;;;16.72;61.87;102006.09;10532313;28;20129;-76
2022/10/12 11:37:38;;;;;;;11.88;5.88;;;;;;;15.90;61.38;101997.69;10534925;28;20040;-75
2022/10/12 11:42:41;;;;;;;;;;;;;;;15.40;61.63;101989.38;10543546;28;20035;-74
2022/10/12 11:47:46;;;;;;;12.65;5.03;;;;;;;15.69;61.38;101974.06;10521212;28;20335;-72
2022/10/12 11:52:51;;;;;;;11.73;5.15;;;;;;;16.30;61.39;101973.91;10502859;28;20085;-72
2022/10/12 11:57:57;;;;;;;10.88;6.10;;;;;;;15.48;61.25;101980.31;10542408;28;20032;-76
2022/10/12 12:03:27;;;;;;;14.90;5.80;;;;;;;15.30;65.63;101980.22;10542702;28;20119;-73
2022/10/12 12:08:53;;;;;;;9.65;5.10;;;;;;;15.16;63.68;101980.84;10515459;28;20119;-71
2022/10/12 12:14:26;;;;;;;8.57;4.57;;;;;;;14.52;65.07;101975.59;10516901;28;20028;-74
2022/10/12 12:19:39;;;;;;;13.13;5.10;;;;;;;15.30;64.13;101974.97;10454438;28;20093;-74
2022/10/12 12:25:15;;;;;;;12.52;5.45;;;;;;;15.71;61.63;101972.22;10541977;28;20050;-76
2022/10/12 12:30:19;;;;;;;7.82;3.38;;;;;;;14.88;62.18;101956.59;10542051;28;20093;-77
2022/10/12 12:35:31;;;;;;;8.05;3.50;;;;;;;14.67;64.51;101953.94;10541819;28;20411;-79
2022/10/12 12:40:34;;;;;;;12.75;4.30;;;;;;;15.00;64.10;101949.09;10541901;28;20032;-77
2022/10/12 12:45:34;;;;;;;7.88;3.60;;;;;;;15.28;63.98;101942.59;10535018;28;20119;-74
2022/10/12 12:50:40;;;;;;;8.02;3.65;;;;;;;15.61;64.07;101939.38;10539629;28;20112;-72
2022/10/12 12:56:41;;;;;;;7.95;3.65;;;;;;;15.12;62.35;101945.91;10529327;28;20575;-69
2022/10/12 13:02:22;;;;;;;9.27;3.45;;;;;;;15.10;63.88;101937.25;10502195;28;20230;-70
2022/10/12 13:07:53;;;;;;;12.27;4.07;;;;;;;15.26;64.39;101928.69;10539806;28;20438;-74
2022/10/12 13:13:17;;;;;;;9.25;3.80;;;;;;;15.40;62.74;101926.28;10538211;28;20043;-73
2022/10/12 13:18:47;;;;;;;9.30;3.15;;;;;;;15.26;61.80;101923.44;10497474;28;20180;-74
2022/10/12 13:23:56;;;;;;;6.38;3.17;;;;;;;14.96;64.38;101921.25;10517131;28;20031;-73
2022/10/12 13:29:00;;;;;;;10.73;3.95;;;;;;;14.95;64.16;101914.28;10538542;28;20489;-74
2022/10/12 13:34:19;;;;;;;3.78;2.80;;;;;;;15.65;63.38;101912.00;10539136;28;20610;-71
2022/10/12 13:39:21;;;;;;;8.75;3.40;;;;;;;14.89;64.32;101913.59;10539439;28;20066;-72
2022/10/12 13:44:33;;;;;;;7.97;2.92;;;;;;;14.68;65.43;101913.59;10538763;28;20038;-72
2022/10/12 13:49:42;;;;;;;9.68;3.00;;;;;;;14.33;67.07;101910.69;10538991;28;20016;-70
2022/10/12 13:54:47;;;;;;;9.43;3.40;;;;;;;14.42;67.80;101897.19;10538556;28;20032;-75
2022/10/12 13:59:59;;;;;;;6.65;3.00;;;;;;;14.80;67.51;101895.63;10538071;28;20490;-73
2022/10/12 14:05:05;;;;;;;7.18;3.25;;;;;;;14.84;66.39;101893.72;10538118;28;20012;-78
2022/10/12 14:10:19;;;;;;;6.82;3.10;;;;;;;15.25;64.85;101893.66;10538203;28;20023;-71
2022/10/12 14:15:22;;;;;;;6.32;3.08;;;;;;;15.55;64.87;101893.16;10535509;28;20061;-71
2022/10/12 14:20:33;;;;;;;6.70;3.17;;;;;;;15.55;64.75;101885.28;10537742;28;20026;-78
2022/10/12 14:25:34;;;;;;;5.03;1.73;;;;;;;15.86;62.97;101864.53;10537772;28;20034;-74
2022/10/12 14:30:48;;;;;;;4.80;2.70;;;;;;;15.32;63.97;101870.53;10537452;28;20410;-76
2022/10/12 14:35:50;;;;;;;7.20;2.90;;;;;;;15.05;64.68;101869.09;10537256;28;20044;-74
2022/10/12 14:40:52;;;;;;;7.38;3.17;;;;;;;14.80;66.98;101870.22;10537316;28;20077;-71
2022/10/12 14:45:52;;;;;;;;;;;;;;;14.64;67.72;101870.00;10534735;28;20039;-71
2022/10/12 14:50:53;;;;;;;7.87;3.50;;;;;;;14.85;68.77;101856.03;10538491;28;19908;-74
2022/10/12 14:55:53;;;;;;;8.60;3.63;;;;;;;14.87;68.15;101856.78;10538349;28;20795;-73
2022/10/12 15:00:55;;;;;;;7.73;3.47;;;;;;;14.61;68.75;101841.22;10538170;28;20046;-70
2022/10/12 15:05:56;;;;;;;10.27;3.58;;;;;;;14.36;69.45;101834.41;10538168;28;20094;-74
2022/10/12 15:10:57;;;;;;;4.77;3.30;;;;;;;14.26;70.33;101833.94;10537977;28;20036;-75
2022/10/12 15:16:00;;;;;;;8.10;3.65;;;;;;;14.20;71.03;101820.25;10544182;28;20043;-75
2022/10/12 15:21:03;;;;;;;8.77;3.65;;;;;;;14.14;71.03;101809.06;10546485;28;20028;-74
2022/10/12 15:26:04;;;;;;;7.43;3.53;;;;;;;14.08;72.49;101817.19;10546131;28;20032;-74
2022/10/12 15:31:06;;;;;;;10.38;4.15;;;;;;;14.06;73.14;101820.81;10546049;28;20725;-73
2022/10/12 15:36:07;;;;;;;8.75;3.88;;;;;;;14.05;72.60;101822.56;10545907;28;20074;-74
2022/10/12 15:41:17;;;;;;;9.85;3.90;;;;;;;13.97;75.67;101827.28;10545797;28;20043;-71
2022/10/12 15:46:18;;;;;;;11.25;4.05;;;;;;;14.00;74.65;101819.28;10525314;28;20468;-72
2022/10/12 15:51:23;;;;;;;10.70;4.70;;;;;;;13.90;75.80;101819.66;10545112;28;20032;-74
2022/10/12 15:56:24;;;;;;;11.57;4.57;;;;;;;13.96;73.97;101820.34;10544903;28;20028;-73
2022/10/12 16:01:25;;;;;;;10.10;4.40;;;;;;;13.82;76.97;101810.41;10544929;28;20031;-73
2022/10/12 16:06:26;;;;;;;6.07;3.92;;;;;;;13.84;75.63;101819.06;10544721;28;20020;-72
2022/10/12 16:11:28;;;;;;;7.07;3.47;;;;;;;13.75;77.45;101812.41;10544503;28;20463;-69
2022/10/12 16:16:30;;;;;;;7.85;3.75;;;;;;;13.63;79.43;101813.78;10541943;28;20060;-75
2022/10/12 16:21:31;;;;;;;10.75;4.22;;;;;;;13.51;78.69;101820.34;10544147;28;20058;-71
2022/10/12 16:26:31;;;;;;;12.27;4.83;;;;;;;13.28;82.66;101819.47;10541350;28;20048;-72
2022/10/12 16:31:31;;;;;;;8.77;4.00;;;;;;;13.10;82.71;101821.84;10542976;28;20081;-71
2022/10/12 16:36:32;;;;;;;10.57;4.40;;;;;;;12.93;82.79;101819.03;10543510;28;20044;-71
2022/10/12 16:41:34;;;;;;;10.32;4.05;;;;;;;12.71;83.51;101822.41;10543304;28;20038;-70
2022/10/12 16:46:35;;;;;;;10.60;5.05;;;;;;;12.66;85.51;101821.72;10540964;28;20030;-71
2022/10/12 16:51:38;;;;;;;12.32;4.45;;;;;;;12.64;88.75;101813.06;10543447;28;20024;-72
2022/10/12 16:56:38;;;;;;;7.95;4.65;;;;;;;12.52;89.48;101815.19;10542555;28;20028;-70
2022/10/12 17:01:40;;;;;;;11.70;5.75;;;;;;;12.31;85.89;101817.66;10542646;28;20034;-65
2022/10/12 17:06:40;;;;;;;9.70;5.03;;;;;;;12.13;92.75;101819.13;10542369;28;20028;-66
2022/10/12 17:11:41;;;;;;;8.70;5.10;;;;;;;11.90;87.27;101815.47;10542124;28;20042;-64
2022/10/12 17:16:48;;;;;;;11.00;4.68;;;;;;;11.42;88.50;101811.75;10521062;28;20028;-66
2022/10/12 17:21:51;;;;;;;10.68;4.60;;;;;;;10.77;95.00;101823.16;10541528;28;20031;-64
2022/10/12 17:26:54;;;;;;;9.48;5.10;;;;;;;10.35;94.83;101826.00;10541049;28;20435;-66
2022/10/12 17:31:56;;;;;;;20.02;4.93;;;;;;;10.04;96.74;101817.19;10522655;28;20039;-67
2022/10/12 17:37:00;;;;;;;9.98;4.60;;;;;;;9.77;100.00;101812.59;10539618;28;20092;-66
2022/10/12 17:42:01;;;;;;;17.60;5.70;;;;;;;9.65;100.00;101792.88;10540330;28;20048;-70
2022/10/12 17:47:03;;;;;;;10.05;4.70;;;;;;;9.44;100.00;101794.22;10538295;28;20064;-67
2022/10/12 17:52:04;;;;;;;11.82;5.35;;;;;;;9.18;100.00;101802.63;10540177;28;20070;-66
2022/10/12 17:57:06;;;;;;;13.93;5.85;;;;;;;9.14;100.00;101809.66;10540012;28;20109;-65
2022/10/12 18:02:06;;;;;;;12.68;6.60;;;;;;;8.89;100.00;101813.59;10540134;28;20467;-67
2022/10/12 18:07:06;;;;;;;19.17;7.27;;;;;;;8.79;100.00;101811.22;10539454;28;20024;-66
2022/10/12 18:12:07;;;;;;;14.68;7.28;;;;;;;8.64;100.00;101813.22;10539057;28;20397;-67
2022/10/12 18:17:08;;;;;;;17.40;11.85;;;;;;;8.54;100.00;101816.88;10536724;28;20040;-67
2022/10/12 18:22:09;;;;;;;19.65;11.85;;;;;;;8.44;100.00;101821.34;10538794;28;20035;-65
2022/10/12 18:27:10;;;;;;;19.35;11.88;;;;;;;8.18;100.00;101814.88;10538538;28;20028;-65
2022/10/12 18:32:11;;;;;;;21.60;11.77;;;;;;;8.06;100.00;101810.72;10538327;28;20040;-66
2022/10/12 18:37:11;;;;;;;19.73;11.52;;;;;;;8.04;100.00;101808.13;10519795;28;20074;-67
2022/10/12 18:42:12;;;;;;;20.67;13.63;;;;;;;7.87;100.00;101805.78;10538010;28;20042;-64
2022/10/12 18:47:14;;;;;;;26.85;12.98;;;;;;;7.89;100.00;101804.03;10535687;28;20317;-65
2022/10/12 18:52:14;;;;;;;22.00;13.15;;;;;;;7.65;100.00;101800.94;10519527;28;20063;-65
2022/10/12 18:57:15;;;;;;;21.85;14.23;;;;;;;7.62;100.00;101806.19;10537238;28;20095;-65
2022/10/12 19:02:19;;;;;;;27.33;12.52;;;;;;;7.58;100.00;101796.72;10537321;28;20036;-65
2022/10/12 19:07:19;;;;;;;22.40;13.93;;;;;;;7.55;100.00;101791.56;10537085;28;20418;-64
2022/10/12 19:12:21;;;;;;;23.83;13.45;;;;;;;7.52;100.00;101792.47;10537359;28;20028;-66
2022/10/12 19:17:21;;;;;;;23.38;12.98;;;;;;;7.51;100.00;101789.88;10535039;28;20043;-67
2022/10/12 19:22:22;;;;;;;22.20;13.03;;;;;;;7.43;100.00;101785.66;10537322;28;20648;-68
2022/10/12 19:27:22;;;;;;;24.60;11.70;;;;;;;7.37;100.00;101780.56;10537087;28;20809;-65
2022/10/12 19:32:22;;;;;;;18.08;11.68;;;;;;;7.31;100.00;101780.63;10536863;28;20709;-65
2022/10/12 19:37:23;;;;;;;24.40;12.15;;;;;;;7.46;100.00;101785.63;10536527;28;20098;-66
2022/10/12 19:42:24;;;;;;;20.85;11.30;;;;;;;7.33;100.00;101784.09;10536669;28;20056;-64
2022/10/12 19:47:25;;;;;;;22.07;11.63;;;;;;;7.38;100.00;101784.00;10534641;28;20024;-67
2022/10/12 19:52:25;;;;;;;24.17;12.25;;;;;;;7.24;100.00;101779.00;10536471;28;20649;-68
2022/10/12 19:57:27;;;;;;;23.70;11.27;;;;;;;7.30;100.00;101778.91;10536319;28;20056;-67
2022/10/12 20:02:27;;;;;;;22.63;11.63;;;;;;;7.31;100.00;101767.66;10543325;28;20339;-65
2022/10/12 20:07:28;;;;;;;24.17;11.75;;;;;;;7.36;100.00;101765.88;10544013;28;20108;-66
2022/10/12 20:12:30;;;;;;;23.58;11.50;;;;;;;7.34;100.00;101770.22;10543589;28;20073;-66
2022/10/12 20:17:31;;;;;;;17.30;10.90;;;;;;;7.29;100.00;101764.22;10541915;28;20039;-66
2022/10/12 20:22:33;;;;;;;22.02;11.25;;;;;;;7.46;100.00;101767.44;10543166;28;20077;-66
2022/10/12 20:27:34;;;;;;;24.02;10.70;;;;;;;7.54;100.00;101772.53;10543563;28;20386;-65
2022/10/12 20:32:36;;;;;;;18.73;11.15;;;;;;;7.55;100.00;101758.66;10543482;28;20038;-66
2022/10/12 20:37:36;;;;;;;20.70;11.65;;;;;;;7.59;100.00;101764.66;10538519;28;20387;-66
2022/10/12 20:42:37;;;;;;;22.08;11.45;;;;;;;7.67;100.00;101757.59;10536468;28;20045;-66
2022/10/12 20:47:41;;;;;;;22.27;12.63;;;;;;;7.51;100.00;101761.31;10540224;28;20052;-66
2022/10/12 20:52:42;;;;;;;19.40;11.60;;;;;;;7.54;100.00;101754.34;10541059;28;20433;-67
2022/10/12 20:57:42;;;;;;;22.00;13.68;;;;;;;7.42;100.00;101757.97;10498683;28;20032;-66
2022/10/12 21:02:43;;;;;;;23.83;12.98;;;;;;;7.45;100.00;101757.94;10526245;28;20031;-65
2022/10/12 21:07:45;;;;;;;24.45;12.43;;;;;;;7.54;100.00;101751.75;10523891;28;20052;-67
2022/10/12 21:12:46;;;;;;;20.90;12.10;;;;;;;7.56;100.00;101749.13;10541469;28;20470;-67
2022/10/12 21:17:46;;;;;;;21.53;12.17;;;;;;;7.70;100.00;101743.72;10539801;28;20020;-66
2022/10/12 21:22:47;;;;;;;25.03;11.67;;;;;;;7.86;100.00;101739.13;10541322;28;20157;-65
2022/10/12 21:27:47;;;;;;;28.52;12.70;;;;;;;8.11;100.00;101741.31;10541063;28;20281;-65
2022/10/12 21:32:47;;;;;;;26.43;12.90;;;;;;;8.29;100.00;101744.47;10541102;28;20131;-65
2022/10/12 21:37:48;;;;;;;25.00;12.97;;;;;;;8.73;100.00;101740.16;10540630;28;20302;-68
2022/10/12 21:42:49;;;;;;;21.27;13.13;;;;;;;9.07;100.00;101732.53;10539905;28;20293;-67
2022/10/12 21:47:50;;;;;;;22.27;14.07;;;;;;;9.06;100.00;101728.25;10539083;28;20409;-64
2022/10/12 21:52:51;;;;;;;23.93;12.63;;;;;;;9.15;100.00;101738.44;10540261;28;20107;-66
2022/10/12 21:57:52;;;;;;;26.40;12.70;;;;;;;9.22;100.00;101721.78;10539910;28;20301;-66
2022/10/12 22:02:54;;;;;;;21.42;11.80;;;;;;;9.29;100.00;101722.50;10539899;28;20028;-67
2022/10/12 22:07:55;;;;;;;14.75;11.18;;;;;;;9.53;100.00;101723.69;10539573;28;20028;-64
2022/10/12 22:12:55;;;;;;;20.80;11.35;;;;;;;9.63;100.00;101716.50;10537778;28;20081;-66
2022/10/12 22:17:55;;;;;;;20.42;11.38;;;;;;;9.74;100.00;101721.44;10538683;28;20384;-65
2022/10/12 22:22:56;;;;;;;21.07;11.03;;;;;;;9.74;100.00;101718.84;10538567;28;20075;-65
2022/10/12 22:27:56;;;;;;;20.00;10.00;;;;;;;9.82;100.00;101716.03;10538916;28;20598;-64
2022/10/12 22:32:57;;;;;;;18.10;11.15;;;;;;;9.81;100.00;101718.69;10538677;28;20660;-65
2022/10/12 22:37:58;;;;;;;18.77;12.03;;;;;;;9.79;100.00;101713.50;10538420;28;20082;-67
2022/10/12 22:42:59;;;;;;;22.45;11.93;;;;;;;9.79;100.00;101710.91;10536017;28;20068;-67
2022/10/12 22:47:59;;;;;;;15.90;9.73;;;;;;;9.89;100.00;101703.72;10538301;28;20088;-64
2022/10/12 22:53:00;;;;;;;17.30;10.97;;;;;;;9.85;100.00;101710.72;10520141;28;20111;-65
2022/10/12 22:58:00;;;;;;;18.87;11.33;;;;;;;9.89;100.00;101708.91;10537987;28;20306;-71
2022/10/12 23:03:02;;;;;;;20.40;10.98;;;;;;;10.07;100.00;101701.50;10538172;28;20277;-73
2022/10/12 23:08:03;;;;;;;21.05;11.48;;;;;;;10.00;100.00;101703.41;10537850;28;20035;-72
2022/10/12 23:13:05;;;;;;;23.30;12.77;;;;;;;10.03;100.00;101704.19;10535116;28;20032;-72
2022/10/12 23:18:06;;;;;;;21.13;11.25;;;;;;;10.00;100.00;101701.69;10537281;28;20036;-72
2022/10/12 23:23:08;;;;;;;22.47;11.47;;;;;;;10.01;100.00;101690.34;10537199;28;20028;-71
2022/10/12 23:28:08;;;;;;;18.75;11.25;;;;;;;10.04;100.00;101695.47;10537557;28;20089;-71
2022/10/12 23:33:10;;;;;;;21.27;12.07;;;;;;;10.14;100.00;101688.28;10538361;28;20073;-74
2022/10/12 23:38:10;;;;;;;22.73;12.57;;;;;;;10.12;100.00;101681.34;10545534;28;20093;-73
2022/10/12 23:43:12;;;;;;;18.67;10.47;;;;;;;10.12;100.00;101682.22;10543009;28;20038;-71
2022/10/12 23:48:13;;;;;;;17.02;11.52;;;;;;;10.21;100.00;101675.91;10545206;28;20274;-71
2022/10/12 23:53:13;;;;;;;23.53;11.67;;;;;;;10.19;100.00;101677.69;10545400;28;20038;-71
2022/10/12 23:58:14;;;;;;;19.30;11.38;;;;;;;10.20;100.00;101666.38;10544599;28;20036;-73
